< < Back
Terminal Aerodrome Forecast


Current Version              Previous Versions:   1  2  3  4  5  6  7  8  9  

Terminal Aerodrome Forecast

225
FTUS42 KJAX 181700
TAFGNV
TAF
KGNV 181721Z 1818/1918 13010KT 2SM SHRA VCTS OVC008CB
     FM181900 15010G18KT 2SM TSRA OVC012CB
     FM182300 18012G20KT 3SM SHRA BR OVC010
     FM190400 20010KT 3SM BR VCSH OVC008=



Latest METAR

444
SAUS70 KWBC 190400 RRB
MTRGNV
METAR KGNV 190353Z AUTO 18004KT 10SM BKN006 OVC011 19/19 A2992 RMK AO2
CIG 003V009 SLP129 T01940189


USA.gov is the U.S. government's official web portal to all federal, state and local government web resources and services.